sensor_id;sensor_type;location;lat;lon;timestamp;pressure;altitude;pressure_sealevel;temperature;humidity
58072;BME280;60383;46.626;18.866;2022-07-29T00:00:44;100335.53;;;22.90;52.87
58072;BME280;60383;46.626;18.866;2022-07-29T00:03:13;100335.03;;;22.81;52.12
58072;BME280;60383;46.626;18.866;2022-07-29T00:05:39;100331.28;;;22.87;51.59
58072;BME280;60383;46.626;18.866;2022-07-29T00:08:06;100336.16;;;22.92;51.94
58072;BME280;60383;46.626;18.866;2022-07-29T00:10:32;100331.16;;;23.06;53.31
58072;BME280;60383;46.626;18.866;2022-07-29T00:12:57;100329.81;;;23.08;55.10
58072;BME280;60383;46.626;18.866;2022-07-29T00:15:22;100332.38;;;22.98;55.36
58072;BME280;60383;46.626;18.866;2022-07-29T00:17:48;100327.63;;;22.98;55.37
58072;BME280;60383;46.626;18.866;2022-07-29T00:20:13;100330.78;;;22.90;56.31
58072;BME280;60383;46.626;18.866;2022-07-29T00:22:39;100327.16;;;22.90;56.19
58072;BME280;60383;46.626;18.866;2022-07-29T00:25:05;100324.63;;;22.88;56.39
58072;BME280;60383;46.626;18.866;2022-07-29T00:27:31;100321.19;;;22.86;56.66
58072;BME280;60383;46.626;18.866;2022-07-29T00:29:57;100318.88;;;22.83;56.92
58072;BME280;60383;46.626;18.866;2022-07-29T00:32:22;100320.47;;;22.79;57.42
58072;BME280;60383;46.626;18.866;2022-07-29T00:34:48;100319.97;;;22.70;57.50
58072;BME280;60383;46.626;18.866;2022-07-29T00:37:32;100315.94;;;22.66;57.50
58072;BME280;60383;46.626;18.866;2022-07-29T00:39:57;100313.03;;;22.61;57.09
58072;BME280;60383;46.626;18.866;2022-07-29T00:42:22;100306.00;;;22.58;56.93
58072;BME280;60383;46.626;18.866;2022-07-29T00:44:48;100310.50;;;22.59;57.15
58072;BME280;60383;46.626;18.866;2022-07-29T00:47:13;100310.63;;;22.64;57.19
58072;BME280;60383;46.626;18.866;2022-07-29T00:49:40;100315.84;;;22.61;57.58
58072;BME280;60383;46.626;18.866;2022-07-29T00:54:51;100309.53;;;22.65;57.95
58072;BME280;60383;46.626;18.866;2022-07-29T00:57:17;100311.97;;;22.62;57.81
58072;BME280;60383;46.626;18.866;2022-07-29T00:59:43;100305.88;;;22.53;57.90
58072;BME280;60383;46.626;18.866;2022-07-29T01:02:08;100307.06;;;22.45;56.72
58072;BME280;60383;46.626;18.866;2022-07-29T01:04:34;100306.69;;;22.42;56.23
58072;BME280;60383;46.626;18.866;2022-07-29T01:07:03;100298.47;;;22.47;56.72
58072;BME280;60383;46.626;18.866;2022-07-29T01:09:31;100308.78;;;22.58;59.08
58072;BME280;60383;46.626;18.866;2022-07-29T01:11:58;100306.25;;;22.57;59.32
58072;BME280;60383;46.626;18.866;2022-07-29T01:14:25;100308.06;;;22.51;59.57
58072;BME280;60383;46.626;18.866;2022-07-29T01:17:04;100296.25;;;22.37;58.76
58072;BME280;60383;46.626;18.866;2022-07-29T01:30:29;100304.16;;;22.10;56.05
58072;BME280;60383;46.626;18.866;2022-07-29T01:33:01;100295.72;;;21.98;55.59
58072;BME280;60383;46.626;18.866;2022-07-29T01:35:39;100294.41;;;22.00;55.18
58072;BME280;60383;46.626;18.866;2022-07-29T01:38:09;100295.91;;;22.03;54.14
58072;BME280;60383;46.626;18.866;2022-07-29T01:40:40;100296.13;;;22.01;54.00
58072;BME280;60383;46.626;18.866;2022-07-29T01:43:13;100304.47;;;22.01;54.05
58072;BME280;60383;46.626;18.866;2022-07-29T01:45:43;100296.13;;;22.01;53.98
58072;BME280;60383;46.626;18.866;2022-07-29T01:48:17;100295.53;;;21.99;53.67
58072;BME280;60383;46.626;18.866;2022-07-29T01:50:50;100294.41;;;22.00;53.70
58072;BME280;60383;46.626;18.866;2022-07-29T01:56:10;100306.66;;;21.99;54.42
58072;BME280;60383;46.626;18.866;2022-07-29T01:58:39;100301.31;;;21.98;53.95
58072;BME280;60383;46.626;18.866;2022-07-29T02:01:06;100302.69;;;22.07;54.83
58072;BME280;60383;46.626;18.866;2022-07-29T02:03:34;100305.03;;;22.10;53.25
58072;BME280;60383;46.626;18.866;2022-07-29T02:06:02;100312.81;;;22.32;54.57
58072;BME280;60383;46.626;18.866;2022-07-29T02:08:29;100313.88;;;22.49;57.39
58072;BME280;60383;46.626;18.866;2022-07-29T02:10:57;100309.63;;;22.47;57.34
58072;BME280;60383;46.626;18.866;2022-07-29T02:13:24;100305.78;;;22.29;56.35
58072;BME280;60383;46.626;18.866;2022-07-29T02:15:52;100303.13;;;22.23;57.31
58072;BME280;60383;46.626;18.866;2022-07-29T02:18:19;100307.31;;;22.13;58.66
58072;BME280;60383;46.626;18.866;2022-07-29T02:20:48;100296.50;;;22.05;57.08
58072;BME280;60383;46.626;18.866;2022-07-29T02:23:17;100300.59;;;22.02;56.84
58072;BME280;60383;46.626;18.866;2022-07-29T02:25:44;100292.72;;;21.99;56.55
58072;BME280;60383;46.626;18.866;2022-07-29T02:28:13;100295.66;;;22.05;56.64
58072;BME280;60383;46.626;18.866;2022-07-29T02:30:40;100296.78;;;22.15;56.53
58072;BME280;60383;46.626;18.866;2022-07-29T02:33:08;100293.38;;;22.13;56.81
58072;BME280;60383;46.626;18.866;2022-07-29T02:35:35;100279.19;;;22.15;57.05
58072;BME280;60383;46.626;18.866;2022-07-29T02:38:02;100280.84;;;22.04;57.45
58072;BME280;60383;46.626;18.866;2022-07-29T02:40:46;100281.59;;;21.99;56.55
58072;BME280;60383;46.626;18.866;2022-07-29T02:43:13;100286.22;;;22.06;56.74
58072;BME280;60383;46.626;18.866;2022-07-29T02:45:39;100287.28;;;22.05;58.74
58072;BME280;60383;46.626;18.866;2022-07-29T02:48:09;100287.75;;;22.01;59.08
58072;BME280;60383;46.626;18.866;2022-07-29T02:50:44;100287.47;;;21.91;58.92
58072;BME280;60383;46.626;18.866;2022-07-29T02:53:17;100287.47;;;21.91;58.46
58072;BME280;60383;46.626;18.866;2022-07-29T02:55:54;100292.69;;;21.88;58.72
58072;BME280;60383;46.626;18.866;2022-07-29T02:58:40;100301.75;;;21.83;58.84
58072;BME280;60383;46.626;18.866;2022-07-29T03:01:20;100302.00;;;21.81;58.94
58072;BME280;60383;46.626;18.866;2022-07-29T03:03:46;100295.09;;;21.84;59.07
58072;BME280;60383;46.626;18.866;2022-07-29T03:06:14;100306.41;;;21.70;60.08
58072;BME280;60383;46.626;18.866;2022-07-29T03:08:41;100300.91;;;21.64;61.58
58072;BME280;60383;46.626;18.866;2022-07-29T03:11:08;100298.50;;;21.67;61.69
58072;BME280;60383;46.626;18.866;2022-07-29T03:13:35;100296.47;;;21.75;61.28
58072;BME280;60383;46.626;18.866;2022-07-29T03:16:02;100294.72;;;21.80;60.96
58072;BME280;60383;46.626;18.866;2022-07-29T03:18:27;100293.47;;;21.76;61.51
58072;BME280;60383;46.626;18.866;2022-07-29T03:20:53;100289.00;;;21.75;62.05
58072;BME280;60383;46.626;18.866;2022-07-29T03:23:20;100295.16;;;21.77;62.05
58072;BME280;60383;46.626;18.866;2022-07-29T03:25:48;100294.72;;;21.80;62.63
58072;BME280;60383;46.626;18.866;2022-07-29T03:28:14;100294.56;;;21.75;63.42
58072;BME280;60383;46.626;18.866;2022-07-29T03:30:39;100302.06;;;21.75;64.25
58072;BME280;60383;46.626;18.866;2022-07-29T03:33:04;100296.47;;;21.75;64.46
58072;BME280;60383;46.626;18.866;2022-07-29T03:35:30;100301.47;;;21.73;64.41
58072;BME280;60383;46.626;18.866;2022-07-29T03:37:57;100305.22;;;21.78;64.36
58072;BME280;60383;46.626;18.866;2022-07-29T03:40:26;100307.56;;;21.81;64.39
58072;BME280;60383;46.626;18.866;2022-07-29T03:42:54;100306.47;;;21.82;63.46
58072;BME280;60383;46.626;18.866;2022-07-29T03:45:21;100305.59;;;21.82;63.83
58072;BME280;60383;46.626;18.866;2022-07-29T03:47:54;100308.34;;;21.70;64.81
58072;BME280;60383;46.626;18.866;2022-07-29T03:50:22;100315.91;;;21.81;65.20
58072;BME280;60383;46.626;18.866;2022-07-29T03:52:48;100309.47;;;21.81;65.28
58072;BME280;60383;46.626;18.866;2022-07-29T03:55:15;100316.50;;;21.83;65.02
58072;BME280;60383;46.626;18.866;2022-07-29T03:57:41;100307.38;;;21.95;65.29
58072;BME280;60383;46.626;18.866;2022-07-29T04:00:08;100309.69;;;21.98;64.25
58072;BME280;60383;46.626;18.866;2022-07-29T04:02:35;100320.78;;;21.86;64.16
58072;BME280;60383;46.626;18.866;2022-07-29T04:05:01;100317.66;;;21.94;63.05
58072;BME280;60383;46.626;18.866;2022-07-29T04:07:26;100318.66;;;22.00;63.49
58072;BME280;60383;46.626;18.866;2022-07-29T04:09:52;100313.72;;;22.14;62.02
58072;BME280;60383;46.626;18.866;2022-07-29T04:12:17;100316.38;;;22.09;62.78
58072;BME280;60383;46.626;18.866;2022-07-29T04:14:43;100318.59;;;22.18;62.43
58072;BME280;60383;46.626;18.866;2022-07-29T04:17:08;100314.72;;;22.20;62.67
58072;BME280;60383;46.626;18.866;2022-07-29T04:19:34;100325.56;;;22.28;62.29
58072;BME280;60383;46.626;18.866;2022-07-29T04:22:00;100316.72;;;22.31;61.35
58072;BME280;60383;46.626;18.866;2022-07-29T04:24:26;100313.19;;;22.36;60.53
58072;BME280;60383;46.626;18.866;2022-07-29T04:26:51;100314.13;;;22.48;60.06
58072;BME280;60383;46.626;18.866;2022-07-29T04:29:17;100305.16;;;22.70;60.20
58072;BME280;60383;46.626;18.866;2022-07-29T04:31:43;100314.41;;;22.70;60.99
58072;BME280;60383;46.626;18.866;2022-07-29T04:34:09;100314.88;;;22.67;60.07
58072;BME280;60383;46.626;18.866;2022-07-29T04:36:35;100298.25;;;22.72;59.45
58072;BME280;60383;46.626;18.866;2022-07-29T04:39:01;100303.59;;;22.74;59.85
58072;BME280;60383;46.626;18.866;2022-07-29T04:41:29;100294.75;;;22.89;57.70
58072;BME280;60383;46.626;18.866;2022-07-29T04:43:56;100295.38;;;23.03;56.26
58072;BME280;60383;46.626;18.866;2022-07-29T04:46:22;100310.41;;;23.25;55.48
58072;BME280;60383;46.626;18.866;2022-07-29T04:48:47;100306.78;;;23.37;52.49
58072;BME280;60383;46.626;18.866;2022-07-29T04:51:14;100302.47;;;23.46;51.35
58072;BME280;60383;46.626;18.866;2022-07-29T04:53:39;100306.59;;;23.55;50.48
58072;BME280;60383;46.626;18.866;2022-07-29T04:56:05;100307.66;;;23.66;50.77
58072;BME280;60383;46.626;18.866;2022-07-29T04:58:30;100308.38;;;23.73;52.05
58072;BME280;60383;46.626;18.866;2022-07-29T05:00:56;100312.72;;;23.81;51.53
58072;BME280;60383;46.626;18.866;2022-07-29T05:03:21;100317.66;;;23.91;51.85
58072;BME280;60383;46.626;18.866;2022-07-29T05:05:47;100315.59;;;23.86;52.42
58072;BME280;60383;46.626;18.866;2022-07-29T05:08:12;100310.97;;;23.92;49.71
58072;BME280;60383;46.626;18.866;2022-07-29T05:10:38;100321.56;;;23.90;50.32
58072;BME280;60383;46.626;18.866;2022-07-29T05:13:07;100320.94;;;24.00;49.78
58072;BME280;60383;46.626;18.866;2022-07-29T05:15:36;100318.03;;;23.95;50.46
58072;BME280;60383;46.626;18.866;2022-07-29T05:18:02;100322.00;;;24.11;50.18
58072;BME280;60383;46.626;18.866;2022-07-29T05:20:28;100329.16;;;24.18;49.81
58072;BME280;60383;46.626;18.866;2022-07-29T05:22:57;100315.84;;;24.26;50.35
58072;BME280;60383;46.626;18.866;2022-07-29T05:25:23;100323.47;;;24.30;49.78
58072;BME280;60383;46.626;18.866;2022-07-29T05:27:49;100340.13;;;24.37;49.38
58072;BME280;60383;46.626;18.866;2022-07-29T05:30:14;100337.81;;;24.34;49.99
58072;BME280;60383;46.626;18.866;2022-07-29T05:32:40;100332.81;;;24.36;49.78
58072;BME280;60383;46.626;18.866;2022-07-29T05:35:06;100332.38;;;24.27;50.70
58072;BME280;60383;46.626;18.866;2022-07-29T05:37:31;100332.69;;;24.43;50.48
58072;BME280;60383;46.626;18.866;2022-07-29T05:39:56;100333.84;;;24.47;50.69
58072;BME280;60383;46.626;18.866;2022-07-29T05:42:22;100332.56;;;24.54;50.16
58072;BME280;60383;46.626;18.866;2022-07-29T05:44:47;100332.16;;;24.63;49.70
58072;BME280;60383;46.626;18.866;2022-07-29T05:47:13;100338.88;;;24.62;50.39
58072;BME280;60383;46.626;18.866;2022-07-29T05:49:38;100338.81;;;24.74;49.78
58072;BME280;60383;46.626;18.866;2022-07-29T05:52:04;100333.63;;;24.82;49.47
58072;BME280;60383;46.626;18.866;2022-07-29T05:54:30;100337.66;;;24.86;49.77
58072;BME280;60383;46.626;18.866;2022-07-29T05:56:55;100334.59;;;24.88;49.89
58072;BME280;60383;46.626;18.866;2022-07-29T05:59:21;100328.38;;;24.86;49.83
58072;BME280;60383;46.626;18.866;2022-07-29T06:01:46;100333.28;;;24.96;49.87
58072;BME280;60383;46.626;18.866;2022-07-29T06:04:12;100331.03;;;24.93;49.40
58072;BME280;60383;46.626;18.866;2022-07-29T06:06:37;100333.28;;;24.96;50.19
58072;BME280;60383;46.626;18.866;2022-07-29T06:09:03;100336.94;;;25.13;49.54
58072;BME280;60383;46.626;18.866;2022-07-29T06:11:28;100331.06;;;25.15;49.59
58072;BME280;60383;46.626;18.866;2022-07-29T06:13:54;100335.59;;;25.16;49.81
58072;BME280;60383;46.626;18.866;2022-07-29T06:16:19;100339.31;;;25.22;48.86
58072;BME280;60383;46.626;18.866;2022-07-29T06:18:45;100340.47;;;25.26;49.20
58072;BME280;60383;46.626;18.866;2022-07-29T06:21:10;100344.91;;;25.39;49.18
58072;BME280;60383;46.626;18.866;2022-07-29T06:23:37;100348.72;;;25.49;48.88
58072;BME280;60383;46.626;18.866;2022-07-29T06:26:03;100350.34;;;25.67;47.98
58072;BME280;60383;46.626;18.866;2022-07-29T06:28:29;100352.69;;;25.76;47.87
58072;BME280;60383;46.626;18.866;2022-07-29T06:30:54;100352.44;;;25.77;48.04
58072;BME280;60383;46.626;18.866;2022-07-29T06:33:20;100347.88;;;25.93;47.01
58072;BME280;60383;46.626;18.866;2022-07-29T06:35:45;100352.69;;;25.98;47.55
58072;BME280;60383;46.626;18.866;2022-07-29T06:38:13;100353.94;;;26.07;47.15
58072;BME280;60383;46.626;18.866;2022-07-29T06:40:42;100357.72;;;26.18;47.04
58072;BME280;60383;46.626;18.866;2022-07-29T06:43:39;100356.97;;;26.28;46.42
58072;BME280;60383;46.626;18.866;2022-07-29T06:46:16;100356.66;;;26.24;46.37
58072;BME280;60383;46.626;18.866;2022-07-29T06:48:45;100356.50;;;26.36;46.17
58072;BME280;60383;46.626;18.866;2022-07-29T06:51:11;100349.50;;;26.39;47.07
58072;BME280;60383;46.626;18.866;2022-07-29T06:53:37;100358.06;;;26.49;46.43
58072;BME280;60383;46.626;18.866;2022-07-29T06:56:04;100354.44;;;26.54;45.88
58072;BME280;60383;46.626;18.866;2022-07-29T06:58:30;100343.03;;;26.66;45.88
58072;BME280;60383;46.626;18.866;2022-07-29T07:01:01;100345.41;;;26.79;45.33
58072;BME280;60383;46.626;18.866;2022-07-29T07:03:27;100348.88;;;26.91;44.62
58072;BME280;60383;46.626;18.866;2022-07-29T07:05:53;100353.47;;;26.98;44.71
58072;BME280;60383;46.626;18.866;2022-07-29T07:08:20;100349.31;;;27.10;44.14
58072;BME280;60383;46.626;18.866;2022-07-29T07:10:45;100348.50;;;27.15;44.90
58072;BME280;60383;46.626;18.866;2022-07-29T07:13:11;100349.19;;;27.33;43.89
58072;BME280;60383;46.626;18.866;2022-07-29T07:15:37;100348.94;;;27.34;44.55
58072;BME280;60383;46.626;18.866;2022-07-29T07:18:03;100344.84;;;27.52;44.19
58072;BME280;60383;46.626;18.866;2022-07-29T07:20:29;100343.19;;;27.62;43.99
58072;BME280;60383;46.626;18.866;2022-07-29T07:22:54;100344.59;;;27.59;43.82
58072;BME280;60383;46.626;18.866;2022-07-29T07:25:20;100341.84;;;27.69;43.74
58072;BME280;60383;46.626;18.866;2022-07-29T07:27:46;100338.16;;;27.69;43.85
58072;BME280;60383;46.626;18.866;2022-07-29T07:30:12;100339.34;;;27.83;43.48
58072;BME280;60383;46.626;18.866;2022-07-29T07:32:37;100350.09;;;27.97;43.40
58072;BME280;60383;46.626;18.866;2022-07-29T07:35:05;100341.16;;;28.05;43.70
58072;BME280;60383;46.626;18.866;2022-07-29T07:37:32;100340.09;;;28.27;42.30
58072;BME280;60383;46.626;18.866;2022-07-29T07:39:57;100340.97;;;28.37;41.95
58072;BME280;60383;46.626;18.866;2022-07-29T07:42:23;100340.66;;;28.49;41.46
58072;BME280;60383;46.626;18.866;2022-07-29T07:44:49;100340.69;;;28.60;41.91
58072;BME280;60383;46.626;18.866;2022-07-29T07:47:15;100339.28;;;28.67;41.34
58072;BME280;60383;46.626;18.866;2022-07-29T07:49:45;100340.44;;;28.82;40.18
58072;BME280;60383;46.626;18.866;2022-07-29T07:52:11;100340.72;;;28.96;39.55
58072;BME280;60383;46.626;18.866;2022-07-29T07:54:36;100344.09;;;29.13;38.85
58072;BME280;60383;46.626;18.866;2022-07-29T07:57:02;100344.38;;;29.17;39.58
58072;BME280;60383;46.626;18.866;2022-07-29T07:59:27;100343.78;;;29.25;39.58
58072;BME280;60383;46.626;18.866;2022-07-29T08:01:53;100347.44;;;29.41;39.89
58072;BME280;60383;46.626;18.866;2022-07-29T08:04:18;100338.66;;;29.58;38.83
58072;BME280;60383;46.626;18.866;2022-07-29T08:06:44;100341.16;;;29.70;38.60
58072;BME280;60383;46.626;18.866;2022-07-29T08:09:09;100345.03;;;29.79;38.41
58072;BME280;60383;46.626;18.866;2022-07-29T08:11:34;100342.19;;;29.90;37.63
58072;BME280;60383;46.626;18.866;2022-07-29T08:14:00;100348.91;;;30.09;37.00
58072;BME280;60383;46.626;18.866;2022-07-29T08:16:27;100339.78;;;30.23;36.84
58072;BME280;60383;46.626;18.866;2022-07-29T08:18:52;100352.22;;;30.22;36.24
58072;BME280;60383;46.626;18.866;2022-07-29T08:21:22;100345.13;;;30.30;37.58
58072;BME280;60383;46.626;18.866;2022-07-29T08:23:49;100342.78;;;30.42;35.69
58072;BME280;60383;46.626;18.866;2022-07-29T08:26:18;100330.63;;;30.41;35.74
58072;BME280;60383;46.626;18.866;2022-07-29T08:28:46;100343.09;;;30.40;36.21
58072;BME280;60383;46.626;18.866;2022-07-29T08:31:14;100330.97;;;30.35;36.89
58072;BME280;60383;46.626;18.866;2022-07-29T08:33:40;100331.53;;;30.32;36.26
58072;BME280;60383;46.626;18.866;2022-07-29T08:36:05;100331.41;;;30.52;35.57
58072;BME280;60383;46.626;18.866;2022-07-29T08:38:31;100329.97;;;30.60;35.17
58072;BME280;60383;46.626;18.866;2022-07-29T08:40:58;100331.81;;;30.75;34.51
58072;BME280;60383;46.626;18.866;2022-07-29T08:43:23;100333.16;;;30.83;35.15
58072;BME280;60383;46.626;18.866;2022-07-29T08:45:50;100333.41;;;30.86;34.85
58072;BME280;60383;46.626;18.866;2022-07-29T08:48:18;100333.41;;;30.86;34.61
58072;BME280;60383;46.626;18.866;2022-07-29T08:50:44;100329.06;;;30.99;35.43
58072;BME280;60383;46.626;18.866;2022-07-29T08:53:12;100324.91;;;31.21;34.02
58072;BME280;60383;46.626;18.866;2022-07-29T08:55:43;100321.63;;;31.38;33.02
58072;BME280;60383;46.626;18.866;2022-07-29T08:58:09;100322.91;;;31.51;31.97
58072;BME280;60383;46.626;18.866;2022-07-29T09:00:37;100321.31;;;31.64;32.61
58072;BME280;60383;46.626;18.866;2022-07-29T09:03:08;100319.47;;;31.78;32.23
58072;BME280;60383;46.626;18.866;2022-07-29T09:05:34;100317.59;;;31.93;32.11
58072;BME280;60383;46.626;18.866;2022-07-29T09:08:00;100318.59;;;32.02;31.39
58072;BME280;60383;46.626;18.866;2022-07-29T09:10:26;100315.84;;;32.16;30.97
58072;BME280;60383;46.626;18.866;2022-07-29T09:12:51;100310.66;;;32.23;30.88
58072;BME280;60383;46.626;18.866;2022-07-29T09:15:17;100307.66;;;32.33;30.67
58072;BME280;60383;46.626;18.866;2022-07-29T09:17:47;100307.34;;;32.54;30.45
58072;BME280;60383;46.626;18.866;2022-07-29T09:20:19;100308.47;;;32.72;30.51
58072;BME280;60383;46.626;18.866;2022-07-29T09:22:45;100309.91;;;32.89;29.36
58072;BME280;60383;46.626;18.866;2022-07-29T09:25:36;100296.78;;;32.93;29.07
58072;BME280;60383;46.626;18.866;2022-07-29T09:28:11;100299.22;;;33.00;29.53
58072;BME280;60383;46.626;18.866;2022-07-29T09:30:56;100301.91;;;32.77;29.48
58072;BME280;60383;46.626;18.866;2022-07-29T09:33:25;100292.19;;;32.97;29.01
58072;BME280;60383;46.626;18.866;2022-07-29T09:36:14;100284.00;;;33.09;29.16
58072;BME280;60383;46.626;18.866;2022-07-29T09:38:39;100282.97;;;33.19;29.00
58072;BME280;60383;46.626;18.866;2022-07-29T09:41:05;100288.66;;;33.19;28.72
58072;BME280;60383;46.626;18.866;2022-07-29T09:43:31;100289.31;;;33.30;28.22
58072;BME280;60383;46.626;18.866;2022-07-29T09:46:09;100280.88;;;33.25;27.02
58072;BME280;60383;46.626;18.866;2022-07-29T09:48:35;100275.44;;;33.28;27.15
58072;BME280;60383;46.626;18.866;2022-07-29T09:51:00;100277.13;;;33.43;27.36
58072;BME280;60383;46.626;18.866;2022-07-29T09:53:34;100275.25;;;33.53;27.79
58072;BME280;60383;46.626;18.866;2022-07-29T09:56:00;100281.94;;;33.71;27.34
58072;BME280;60383;46.626;18.866;2022-07-29T09:58:26;100283.13;;;33.84;27.14
58072;BME280;60383;46.626;18.866;2022-07-29T10:00:53;100279.59;;;34.01;27.02
58072;BME280;60383;46.626;18.866;2022-07-29T10:03:20;100283.81;;;34.03;27.26
58072;BME280;60383;46.626;18.866;2022-07-29T10:05:46;100275.75;;;33.97;27.57
58072;BME280;60383;46.626;18.866;2022-07-29T10:08:12;100277.22;;;33.94;26.75
58072;BME280;60383;46.626;18.866;2022-07-29T10:10:42;100270.75;;;34.02;27.12
58072;BME280;60383;46.626;18.866;2022-07-29T10:13:14;100276.00;;;34.09;27.19
58072;BME280;60383;46.626;18.866;2022-07-29T10:15:51;100270.97;;;34.06;27.22
58072;BME280;60383;46.626;18.866;2022-07-29T10:18:17;100265.47;;;33.45;28.49
58072;BME280;60383;46.626;18.866;2022-07-29T10:20:48;100268.84;;;34.12;28.02
58072;BME280;60383;46.626;18.866;2022-07-29T10:23:13;100267.25;;;34.56;26.17
58072;BME280;60383;46.626;18.866;2022-07-29T10:25:39;100270.66;;;34.44;26.09
58072;BME280;60383;46.626;18.866;2022-07-29T10:28:05;100265.94;;;34.39;27.10
58072;BME280;60383;46.626;18.866;2022-07-29T10:30:34;100268.03;;;33.97;26.70
58072;BME280;60383;46.626;18.866;2022-07-29T10:44:00;100254.44;;;34.45;26.10
58072;BME280;60383;46.626;18.866;2022-07-29T10:46:27;100253.84;;;34.79;25.95
58072;BME280;60383;46.626;18.866;2022-07-29T10:49:12;100248.13;;;34.48;25.73
58072;BME280;60383;46.626;18.866;2022-07-29T10:57:22;100234.56;;;34.08;27.12
58072;BME280;60383;46.626;18.866;2022-07-29T11:05:09;100241.16;;;34.17;26.24
58072;BME280;60383;46.626;18.866;2022-07-29T11:07:36;100237.75;;;34.75;24.95
58072;BME280;60383;46.626;18.866;2022-07-29T11:15:09;100227.09;;;34.35;25.00
58072;BME280;60383;46.626;18.866;2022-07-29T11:18:05;100235.25;;;33.77;26.28
58072;BME280;60383;46.626;18.866;2022-07-29T11:22:59;100226.03;;;34.08;24.81
58072;BME280;60383;46.626;18.866;2022-07-29T11:25:25;100218.22;;;33.91;25.03
58072;BME280;60383;46.626;18.866;2022-07-29T11:28:09;100217.66;;;34.03;25.85
58072;BME280;60383;46.626;18.866;2022-07-29T11:30:53;100205.66;;;34.51;24.74
58072;BME280;60383;46.626;18.866;2022-07-29T11:33:33;100210.88;;;33.62;25.78
58072;BME280;60383;46.626;18.866;2022-07-29T11:36:14;100209.66;;;34.50;26.37
58072;BME280;60383;46.626;18.866;2022-07-29T11:38:40;100208.78;;;34.72;24.27
58072;BME280;60383;46.626;18.866;2022-07-29T11:41:23;100197.09;;;35.06;23.70
58072;BME280;60383;46.626;18.866;2022-07-29T11:43:57;100192.94;;;35.12;24.33
58072;BME280;60383;46.626;18.866;2022-07-29T11:46:50;100194.91;;;35.02;24.63
58072;BME280;60383;46.626;18.866;2022-07-29T11:49:24;100198.25;;;34.42;24.77
58072;BME280;60383;46.626;18.866;2022-07-29T11:51:55;100198.91;;;34.70;24.81
58072;BME280;60383;46.626;18.866;2022-07-29T11:54:32;100196.81;;;34.53;24.88
58072;BME280;60383;46.626;18.866;2022-07-29T11:56:59;100193.22;;;34.70;25.58
58072;BME280;60383;46.626;18.866;2022-07-29T11:59:25;100192.03;;;34.62;25.42
58072;BME280;60383;46.626;18.866;2022-07-29T12:01:58;100190.91;;;35.03;25.55
58072;BME280;60383;46.626;18.866;2022-07-29T12:04:25;100196.94;;;34.48;25.79
58072;BME280;60383;46.626;18.866;2022-07-29T12:06:55;100191.53;;;34.15;26.47
58072;BME280;60383;46.626;18.866;2022-07-29T12:09:22;100192.88;;;34.71;25.41
58072;BME280;60383;46.626;18.866;2022-07-29T12:11:48;100193.41;;;35.05;25.59
58072;BME280;60383;46.626;18.866;2022-07-29T12:14:30;100180.50;;;35.39;25.49
58072;BME280;60383;46.626;18.866;2022-07-29T12:16:57;100182.22;;;35.09;25.64
58072;BME280;60383;46.626;18.866;2022-07-29T12:19:23;100179.91;;;35.11;26.02
58072;BME280;60383;46.626;18.866;2022-07-29T12:21:53;100171.41;;;35.37;26.78
58072;BME280;60383;46.626;18.866;2022-07-29T12:24:20;100168.47;;;35.69;24.94
58072;BME280;60383;46.626;18.866;2022-07-29T12:27:04;100157.38;;;35.49;25.53
58072;BME280;60383;46.626;18.866;2022-07-29T12:29:30;100154.91;;;35.65;24.87
58072;BME280;60383;46.626;18.866;2022-07-29T12:31:55;100165.09;;;35.49;25.60
58072;BME280;60383;46.626;18.866;2022-07-29T12:34:23;100161.09;;;35.50;25.52
58072;BME280;60383;46.626;18.866;2022-07-29T12:36:49;100153.78;;;35.17;26.91
58072;BME280;60383;46.626;18.866;2022-07-29T12:39:16;100151.28;;;34.76;27.04
58072;BME280;60383;46.626;18.866;2022-07-29T12:41:42;100152.72;;;34.64;26.33
58072;BME280;60383;46.626;18.866;2022-07-29T12:44:07;100148.31;;;34.04;27.03
58072;BME280;60383;46.626;18.866;2022-07-29T12:46:33;100148.50;;;33.71;27.30
58072;BME280;60383;46.626;18.866;2022-07-29T12:48:58;100141.53;;;33.54;27.72
58072;BME280;60383;46.626;18.866;2022-07-29T12:51:38;100149.97;;;33.46;28.62
58072;BME280;60383;46.626;18.866;2022-07-29T12:54:09;100136.72;;;32.99;29.11
58072;BME280;60383;46.626;18.866;2022-07-29T12:56:36;100142.16;;;33.23;28.23
58072;BME280;60383;46.626;18.866;2022-07-29T12:59:16;100135.38;;;32.96;28.74
58072;BME280;60383;46.626;18.866;2022-07-29T13:01:43;100140.91;;;33.43;30.46
58072;BME280;60383;46.626;18.866;2022-07-29T13:04:08;100136.31;;;33.84;29.50
58072;BME280;60383;46.626;18.866;2022-07-29T13:06:37;100138.81;;;34.08;27.73
58072;BME280;60383;46.626;18.866;2022-07-29T13:09:05;100128.47;;;34.35;27.72
58072;BME280;60383;46.626;18.866;2022-07-29T13:11:39;100127.34;;;33.91;27.46
58072;BME280;60383;46.626;18.866;2022-07-29T13:14:06;100121.84;;;33.95;27.89
58072;BME280;60383;46.626;18.866;2022-07-29T13:16:32;100117.56;;;34.06;27.25
58072;BME280;60383;46.626;18.866;2022-07-29T13:19:09;100122.19;;;33.93;27.96
58072;BME280;60383;46.626;18.866;2022-07-29T13:21:36;100118.28;;;34.12;27.79
58072;BME280;60383;46.626;18.866;2022-07-29T13:24:02;100107.84;;;34.21;27.90
58072;BME280;60383;46.626;18.866;2022-07-29T13:26:28;100107.69;;;34.49;27.96
58072;BME280;60383;46.626;18.866;2022-07-29T13:28:54;100110.13;;;34.73;26.87
58072;BME280;60383;46.626;18.866;2022-07-29T13:31:20;100115.00;;;34.18;27.71